createdAt,value
2018-12-01T00:02:16.773Z,90.29
2018-12-01T00:04:43.057Z,90.33
2018-12-01T00:07:09.388Z,90.41
2018-12-01T00:09:35.678Z,90.04
2018-12-01T00:12:01.969Z,89.89
2018-12-01T00:14:28.301Z,89.95
2018-12-01T00:16:54.657Z,89.88
2018-12-01T00:19:20.962Z,89.84
2018-12-01T00:21:47.279Z,90.15
2018-12-01T00:24:13.600Z,90.13
2018-12-01T00:26:39.901Z,90.33
2018-12-01T00:29:06.188Z,90.52
2018-12-01T00:31:32.505Z,90.38
2018-12-01T00:33:58.824Z,90.30
2018-12-01T00:36:25.110Z,90.25
2018-12-01T00:38:51.393Z,90.40
2018-12-01T00:41:17.712Z,90.43
2018-12-01T00:43:43.993Z,90.38
2018-12-01T00:46:10.275Z,90.38
2018-12-01T00:48:36.597Z,90.31
2018-12-01T00:51:02.931Z,90.45
2018-12-01T00:53:29.240Z,90.20
2018-12-01T00:55:55.535Z,90.11
2018-12-01T00:58:21.816Z,89.98
2018-12-01T01:00:48.100Z,89.96
2018-12-01T01:03:14.388Z,89.97
2018-12-01T01:05:40.683Z,90.07
2018-12-01T01:08:06.968Z,90.18
2018-12-01T01:10:33.257Z,90.33
2018-12-01T01:12:59.547Z,90.37
2018-12-01T01:15:25.969Z,90.16
2018-12-01T01:17:52.412Z,89.82
2018-12-01T01:20:18.699Z,89.82
2018-12-01T01:22:45.009Z,89.65
2018-12-01T01:25:11.344Z,89.58
2018-12-01T01:27:37.636Z,89.56
2018-12-01T01:30:07.570Z,89.26
2018-12-01T01:32:33.889Z,89.25
2018-12-01T01:35:00.214Z,89.66
2018-12-01T01:37:26.500Z,89.48
2018-12-01T01:39:52.966Z,89.05
2018-12-01T01:42:19.252Z,88.96
2018-12-01T01:44:45.553Z,88.84
2018-12-01T01:47:11.839Z,88.33
2018-12-01T01:49:38.135Z,88.35
2018-12-01T01:52:04.416Z,88.28
2018-12-01T01:54:30.719Z,88.12
2018-12-01T01:56:57.020Z,88.13
2018-12-01T01:59:23.316Z,87.91
2018-12-01T02:01:49.640Z,87.86
2018-12-01T02:04:15.934Z,87.75
2018-12-01T02:06:42.237Z,87.60
2018-12-01T02:09:08.541Z,87.57
2018-12-01T02:11:34.846Z,87.62
2018-12-01T02:14:01.145Z,87.92
2018-12-01T02:16:27.423Z,87.80
2018-12-01T02:18:53.757Z,87.84
2018-12-01T02:21:20.039Z,87.93
2018-12-01T02:23:46.345Z,88.02
2018-12-01T02:26:12.653Z,88.12
2018-12-01T02:28:38.951Z,88.04
2018-12-01T02:31:05.244Z,87.96
2018-12-01T02:33:31.549Z,87.98
2018-12-01T02:35:57.843Z,88.01
2018-12-01T02:38:24.136Z,88.23
2018-12-01T02:40:50.438Z,88.43
2018-12-01T02:43:16.716Z,88.39
2018-12-01T02:45:43.015Z,88.35
2018-12-01T02:48:09.325Z,88.25
2018-12-01T02:50:35.629Z,88.11
2018-12-01T02:53:01.941Z,88.31
2018-12-01T02:55:28.237Z,88.31
2018-12-01T02:57:54.548Z,88.29
2018-12-01T03:00:20.826Z,88.45
2018-12-01T03:02:47.175Z,88.46
2018-12-01T03:05:13.469Z,88.69
2018-12-01T03:07:39.758Z,88.72
2018-12-01T03:10:06.047Z,88.94
2018-12-01T03:12:32.361Z,88.91
2018-12-01T03:14:58.662Z,88.94
2018-12-01T03:17:24.990Z,88.96
2018-12-01T03:19:51.286Z,89.03
2018-12-01T03:22:17.580Z,89.21
2018-12-01T03:24:43.904Z,89.19
2018-12-01T03:27:10.225Z,89.17
2018-12-01T03:29:36.566Z,89.28
2018-12-01T03:32:02.859Z,89.34
2018-12-01T03:34:29.150Z,89.21
2018-12-01T03:36:55.455Z,88.96
2018-12-01T03:39:21.740Z,89.11
2018-12-01T03:41:48.058Z,89.34
2018-12-01T03:44:14.350Z,89.30
2018-12-01T03:46:40.684Z,89.14
2018-12-01T03:49:06.983Z,89.08
2018-12-01T03:51:33.294Z,89.19
2018-12-01T03:53:59.587Z,89.17
2018-12-01T03:56:25.923Z,89.35
2018-12-01T03:58:52.268Z,89.09
2018-12-01T04:01:18.567Z,89.13
2018-12-01T04:03:44.842Z,88.76
2018-12-01T04:06:11.160Z,88.96
2018-12-01T04:08:37.447Z,88.73
2018-12-01T04:11:03.738Z,88.78
2018-12-01T04:13:30.026Z,88.77
2018-12-01T04:15:56.337Z,88.57
2018-12-01T04:18:22.619Z,88.42
2018-12-01T04:20:48.953Z,88.17
2018-12-01T04:23:15.241Z,88.48
2018-12-01T04:25:41.525Z,88.44
2018-12-01T04:28:07.823Z,88.60
2018-12-01T04:30:34.143Z,88.80
2018-12-01T04:33:00.443Z,88.91
2018-12-01T04:35:26.745Z,89.13
2018-12-01T04:37:53.035Z,89.17
2018-12-01T04:40:19.327Z,89.23
2018-12-01T04:42:45.652Z,89.35
2018-12-01T04:45:11.960Z,89.04
2018-12-01T04:47:38.298Z,89.08
2018-12-01T04:50:04.592Z,89.30
2018-12-01T04:52:30.873Z,89.54
2018-12-01T04:54:57.195Z,89.80
2018-12-01T04:57:23.480Z,89.94
2018-12-01T04:59:49.793Z,90.02
2018-12-01T05:02:16.113Z,89.93
2018-12-01T05:04:42.407Z,90.01
2018-12-01T05:07:08.708Z,90.13
2018-12-01T05:09:34.996Z,90.34
2018-12-01T05:12:01.273Z,90.39
2018-12-01T05:14:27.587Z,90.47
2018-12-01T05:16:53.871Z,90.56
2018-12-01T05:19:20.194Z,90.56
2018-12-01T05:21:46.560Z,90.53
2018-12-01T05:24:12.850Z,90.44
2018-12-01T05:26:39.197Z,90.45
2018-12-01T05:29:05.505Z,90.26
2018-12-01T05:31:31.800Z,90.09
2018-12-01T05:33:58.103Z,90.09
2018-12-01T05:36:24.446Z,90.16
2018-12-01T05:38:50.728Z,90.26
2018-12-01T05:41:17.017Z,90.35
2018-12-01T05:43:43.328Z,90.30
2018-12-01T05:46:09.626Z,90.37
2018-12-01T05:48:35.931Z,90.53
2018-12-01T05:51:02.218Z,90.35
2018-12-01T05:53:28.532Z,90.42
2018-12-01T05:55:54.813Z,90.19
2018-12-01T05:58:21.165Z,90.42
2018-12-01T06:00:47.417Z,90.28
2018-12-01T06:03:13.724Z,90.50
2018-12-01T06:05:40.008Z,90.28
2018-12-01T06:08:06.320Z,90.29
2018-12-01T06:10:32.601Z,89.91
2018-12-01T06:12:58.915Z,89.77
2018-12-01T06:15:25.252Z,89.54
2018-12-01T06:17:51.615Z,88.76
2018-12-01T06:20:17.872Z,88.23
2018-12-01T06:22:44.180Z,87.64
2018-12-01T06:25:10.475Z,87.20
2018-12-01T06:27:36.768Z,87.08
2018-12-01T06:30:06.477Z,86.77
2018-12-01T06:32:32.816Z,86.13
2018-12-01T06:35:00.771Z,85.52
2018-12-01T06:37:27.121Z,83.37
2018-12-01T06:39:53.420Z,82.65
2018-12-01T06:42:19.727Z,81.43
2018-12-01T06:44:46.018Z,81.14
2018-12-01T06:47:12.326Z,80.34
2018-12-01T06:49:38.634Z,80.73
2018-12-01T06:52:04.924Z,80.33
2018-12-01T06:54:31.276Z,79.65
2018-12-01T06:56:57.593Z,78.69
2018-12-01T06:59:23.889Z,78.45
2018-12-01T07:01:50.195Z,77.10
2018-12-01T07:04:16.496Z,77.52
2018-12-01T07:06:42.793Z,77.26
2018-12-01T07:09:09.072Z,76.20
2018-12-01T07:11:35.385Z,75.50
2018-12-01T07:14:01.669Z,75.20
2018-12-01T07:16:27.977Z,75.35
2018-12-01T07:18:54.284Z,74.87
2018-12-01T07:21:20.583Z,74.79
2018-12-01T07:23:46.865Z,74.64
2018-12-01T07:26:13.228Z,73.35
2018-12-01T07:28:39.518Z,72.89
2018-12-01T07:31:05.823Z,73.14
2018-12-01T07:33:32.124Z,72.82
2018-12-01T07:35:58.414Z,71.80
2018-12-01T07:38:24.697Z,71.80
2018-12-01T07:40:50.991Z,72.55
2018-12-01T07:43:17.294Z,71.65
2018-12-01T07:45:43.595Z,72.18
2018-12-01T07:48:09.872Z,72.57
2018-12-01T07:50:36.179Z,70.31
2018-12-01T07:53:02.454Z,71.07
2018-12-01T07:55:28.771Z,70.20
2018-12-01T07:57:55.062Z,69.74
2018-12-01T08:00:21.367Z,69.82
2018-12-01T08:02:47.648Z,70.74
2018-12-01T08:05:13.961Z,70.09
2018-12-01T08:07:40.269Z,69.83
2018-12-01T08:10:06.596Z,69.73
2018-12-01T08:12:32.935Z,69.11
2018-12-01T08:14:59.231Z,70.75
2018-12-01T08:17:25.571Z,69.14
2018-12-01T08:19:51.892Z,68.59
2018-12-01T08:22:18.194Z,68.08
2018-12-01T08:24:44.482Z,69.81
2018-12-01T08:27:10.779Z,68.90
2018-12-01T08:29:37.098Z,69.12
2018-12-01T08:32:03.388Z,68.36
2018-12-01T08:34:29.740Z,67.38
2018-12-01T08:36:56.217Z,67.89
2018-12-01T08:39:22.776Z,69.03
2018-12-01T08:41:49.071Z,70.48
2018-12-01T08:44:15.374Z,71.33
2018-12-01T08:46:41.887Z,71.01
2018-12-01T08:49:08.226Z,71.80
2018-12-01T08:51:34.531Z,70.51
2018-12-01T08:54:00.895Z,68.73
2018-12-01T08:56:27.178Z,69.35
2018-12-01T08:58:53.489Z,70.88
2018-12-01T09:01:19.833Z,71.42
2018-12-01T09:03:46.127Z,70.08
2018-12-01T09:06:12.408Z,69.62
2018-12-01T09:08:38.717Z,69.69
2018-12-01T09:11:05.001Z,65.08
2018-12-01T09:13:31.336Z,67.06
2018-12-01T09:15:57.671Z,63.84
2018-12-01T09:18:24.009Z,65.83
2018-12-01T09:20:50.290Z,63.74
2018-12-01T09:23:16.614Z,62.30
2018-12-01T09:25:42.915Z,60.71
2018-12-01T09:28:09.221Z,63.63
2018-12-01T09:30:35.524Z,63.15
2018-12-01T09:33:01.821Z,62.70
2018-12-01T09:35:28.103Z,62.28
2018-12-01T09:37:54.415Z,60.73
2018-12-01T09:40:20.716Z,62.64
2018-12-01T09:42:47.011Z,60.00
2018-12-01T09:45:13.308Z,59.70
2018-12-01T09:47:39.610Z,59.69
2018-12-01T09:50:05.890Z,60.25
2018-12-01T09:52:32.215Z,58.13
2018-12-01T09:54:58.514Z,58.06
2018-12-01T09:57:24.810Z,60.50
2018-12-01T09:59:51.100Z,61.87
2018-12-01T10:02:17.479Z,61.06
2018-12-01T10:04:43.784Z,58.92
2018-12-01T10:07:10.074Z,57.32
2018-12-01T10:09:36.373Z,57.03
2018-12-01T10:12:02.719Z,58.28
2018-12-01T10:14:29.013Z,58.56
2018-12-01T10:16:55.352Z,57.66
2018-12-01T10:19:21.648Z,58.26
2018-12-01T10:21:47.941Z,59.40
2018-12-01T10:24:14.257Z,59.43
2018-12-01T10:26:40.549Z,57.97
2018-12-01T10:29:06.858Z,56.81
2018-12-01T10:31:33.147Z,58.21
2018-12-01T10:33:59.533Z,57.92
2018-12-01T10:36:25.835Z,56.60
2018-12-01T10:38:52.145Z,56.99
2018-12-01T10:41:18.424Z,57.96
2018-12-01T10:43:44.744Z,56.59
2018-12-01T10:46:11.040Z,59.48
2018-12-01T10:48:37.416Z,61.02
2018-12-01T10:51:03.737Z,61.31
2018-12-01T10:53:30.050Z,59.22
2018-12-01T10:55:56.381Z,60.90
2018-12-01T10:58:22.659Z,58.80
2018-12-01T11:00:51.957Z,59.32
2018-12-01T11:03:18.314Z,58.65
2018-12-01T11:05:44.594Z,58.04
2018-12-01T11:08:10.904Z,60.77
2018-12-01T11:10:37.196Z,60.79
2018-12-01T11:13:03.486Z,60.21
2018-12-01T11:15:29.782Z,61.87
2018-12-01T11:17:56.087Z,62.64
2018-12-01T11:20:22.384Z,63.82
2018-12-01T11:22:48.674Z,63.08
2018-12-01T11:25:15.012Z,62.89
2018-12-01T11:27:41.315Z,61.35
2018-12-01T11:30:07.675Z,60.90
2018-12-01T11:32:33.997Z,62.16
2018-12-01T11:35:00.278Z,63.47
2018-12-01T11:37:26.577Z,63.93
2018-12-01T11:39:52.877Z,65.10
2018-12-01T11:42:19.179Z,65.45
2018-12-01T11:44:45.459Z,66.19
2018-12-01T11:47:11.768Z,66.74
2018-12-01T11:49:38.119Z,67.22
2018-12-01T11:52:04.424Z,67.40
2018-12-01T11:54:30.715Z,66.23
2018-12-01T11:56:57.027Z,65.07
2018-12-01T11:59:23.315Z,64.97
2018-12-01T12:01:49.614Z,64.57
2018-12-01T12:04:15.951Z,65.69
2018-12-01T12:06:42.214Z,65.41
2018-12-01T12:09:08.512Z,64.58
2018-12-01T12:11:34.826Z,64.38
2018-12-01T12:14:01.121Z,63.92
2018-12-01T12:16:27.426Z,64.62
2018-12-01T12:18:53.723Z,64.64
2018-12-01T12:21:20.032Z,65.31
2018-12-01T12:23:46.344Z,65.28
2018-12-01T12:26:12.685Z,67.05
2018-12-01T12:28:38.941Z,65.71
2018-12-01T12:31:05.272Z,65.10
2018-12-01T12:33:31.593Z,66.36
2018-12-01T12:35:57.924Z,65.52
2018-12-01T12:38:24.226Z,66.63
2018-12-01T12:40:50.534Z,66.88
2018-12-01T12:43:16.827Z,67.35
2018-12-01T12:45:43.138Z,66.97
2018-12-01T12:48:09.434Z,67.04
2018-12-01T12:50:35.755Z,67.03
2018-12-01T12:53:02.050Z,66.40
2018-12-01T12:55:28.343Z,65.74
2018-12-01T12:57:54.643Z,65.78
2018-12-01T13:00:20.956Z,66.04
2018-12-01T13:02:47.242Z,64.79
2018-12-01T13:05:13.550Z,65.84
2018-12-01T13:07:39.826Z,65.61
2018-12-01T13:10:06.124Z,64.82
2018-12-01T13:12:32.427Z,64.71
2018-12-01T13:14:58.781Z,65.20
2018-12-01T13:17:25.068Z,64.81
2018-12-01T13:19:51.406Z,65.21
2018-12-01T13:22:17.701Z,65.34
2018-12-01T13:24:44.004Z,64.59
2018-12-01T13:27:10.308Z,66.28
2018-12-01T13:29:36.639Z,66.73
2018-12-01T13:32:02.922Z,66.46
2018-12-01T13:34:29.231Z,66.99
2018-12-01T13:36:55.526Z,68.41
2018-12-01T13:39:21.826Z,69.76
2018-12-01T13:41:48.155Z,70.13
2018-12-01T13:44:14.468Z,70.04
2018-12-01T13:46:40.785Z,70.44
2018-12-01T13:49:07.131Z,70.28
2018-12-01T13:51:33.432Z,71.31
2018-12-01T13:54:00.044Z,71.03
2018-12-01T13:56:26.605Z,71.17
2018-12-01T13:58:52.818Z,71.69
2018-12-01T14:01:19.117Z,71.74
2018-12-01T14:03:45.412Z,71.68
2018-12-01T14:06:11.715Z,71.68
2018-12-01T14:08:38.027Z,72.26
2018-12-01T14:11:04.324Z,71.96
2018-12-01T14:13:30.667Z,72.45
2018-12-01T14:15:57.039Z,73.22
2018-12-01T14:18:23.325Z,72.57
2018-12-01T14:20:49.611Z,73.01
2018-12-01T14:23:15.930Z,73.21
2018-12-01T14:25:42.219Z,73.30
2018-12-01T14:28:08.508Z,73.48
2018-12-01T14:30:34.807Z,73.88
2018-12-01T14:33:01.114Z,74.07
2018-12-01T14:35:27.398Z,74.84
2018-12-01T14:37:53.689Z,74.48
2018-12-01T14:40:19.985Z,74.42
2018-12-01T14:42:46.283Z,74.50
2018-12-01T14:45:12.618Z,74.37
2018-12-01T14:47:38.923Z,74.35
2018-12-01T14:50:05.253Z,74.31
2018-12-01T14:52:31.560Z,74.78
2018-12-01T14:54:57.849Z,75.11
2018-12-01T14:57:24.197Z,74.99
2018-12-01T14:59:50.480Z,75.61
2018-12-01T15:02:16.831Z,75.62
2018-12-01T15:04:43.115Z,75.67
2018-12-01T15:07:09.415Z,76.27
2018-12-01T15:09:35.749Z,76.95
2018-12-01T15:12:02.053Z,76.59
2018-12-01T15:14:28.337Z,76.98
2018-12-01T15:16:54.635Z,77.06
2018-12-01T15:19:20.924Z,77.23
2018-12-01T15:21:47.257Z,77.00
2018-12-01T15:24:13.588Z,77.46
2018-12-01T15:26:39.913Z,78.03
2018-12-01T15:29:06.245Z,78.33
2018-12-01T15:31:32.547Z,78.65
2018-12-01T15:33:58.832Z,79.11
2018-12-01T15:36:25.121Z,79.36
2018-12-01T15:38:51.425Z,80.13
2018-12-01T15:41:17.726Z,80.07
2018-12-01T15:43:44.026Z,80.25
2018-12-01T15:46:10.361Z,80.56
2018-12-01T15:48:36.683Z,80.79
2018-12-01T15:51:02.983Z,81.21
2018-12-01T15:53:29.278Z,81.57
2018-12-01T15:55:55.601Z,81.94
2018-12-01T15:58:21.885Z,82.27
2018-12-01T16:00:48.191Z,82.25
2018-12-01T16:03:14.478Z,82.45
2018-12-01T16:05:40.765Z,82.62
2018-12-01T16:08:07.063Z,82.93
2018-12-01T16:10:33.397Z,83.05
2018-12-01T16:12:59.674Z,83.16
2018-12-01T16:15:25.971Z,83.35
2018-12-01T16:17:52.313Z,83.61
2018-12-01T16:20:18.601Z,83.63
2018-12-01T16:22:45.831Z,83.63
2018-12-01T16:25:12.133Z,83.40
2018-12-01T16:27:38.414Z,83.47
2018-12-01T16:30:04.721Z,83.38
2018-12-01T16:32:31.027Z,83.52
2018-12-01T16:34:57.384Z,83.73
2018-12-01T16:37:25.100Z,84.02
2018-12-01T16:39:51.425Z,84.27
2018-12-01T16:42:17.706Z,84.33
2018-12-01T16:44:43.997Z,84.37
2018-12-01T16:47:11.498Z,84.55
2018-12-01T16:49:37.777Z,84.53
2018-12-01T16:52:04.060Z,84.63
2018-12-01T16:54:30.476Z,84.69
2018-12-01T16:56:56.715Z,84.54
2018-12-01T16:59:23.010Z,84.58
2018-12-01T17:01:49.344Z,84.44
2018-12-01T17:04:15.656Z,84.22
2018-12-01T17:06:41.988Z,84.25
2018-12-01T17:09:08.347Z,84.31
2018-12-01T17:11:34.657Z,84.37
2018-12-01T17:14:00.959Z,84.41
2018-12-01T17:16:27.248Z,84.42
2018-12-01T17:18:54.327Z,84.61
2018-12-01T17:21:19.853Z,84.61
2018-12-01T17:23:46.627Z,84.34
2018-12-01T17:26:12.900Z,84.12
2018-12-01T17:28:39.205Z,84.39
2018-12-01T17:31:05.650Z,84.28
2018-12-01T17:33:31.944Z,84.51
2018-12-01T17:35:58.300Z,84.75
2018-12-01T17:38:24.599Z,84.52
2018-12-01T17:40:50.974Z,84.59
2018-12-01T17:43:17.509Z,84.43
2018-12-01T17:45:43.767Z,84.56
2018-12-01T17:48:10.057Z,84.42
2018-12-01T17:50:36.385Z,84.09
2018-12-01T17:53:02.716Z,84.06
2018-12-01T17:55:29.043Z,83.70
2018-12-01T17:57:55.342Z,83.58
2018-12-01T18:00:21.666Z,83.79
2018-12-01T18:02:47.954Z,84.05
2018-12-01T18:05:14.295Z,84.24
2018-12-01T18:07:40.604Z,84.20
2018-12-01T18:10:08.185Z,84.26
2018-12-01T18:12:33.268Z,84.25
2018-12-01T18:14:59.571Z,84.50
2018-12-01T18:17:25.914Z,84.80
2018-12-01T18:19:52.251Z,85.19
2018-12-01T18:22:18.556Z,85.42
2018-12-01T18:24:44.818Z,85.59
2018-12-01T18:27:11.132Z,86.18
2018-12-01T18:29:37.438Z,86.18
2018-12-01T18:32:03.745Z,86.04
2018-12-01T18:34:30.036Z,85.95
2018-12-01T18:36:56.447Z,85.61
2018-12-01T18:39:22.730Z,85.88
2018-12-01T18:41:49.024Z,85.63
2018-12-01T18:44:15.330Z,85.79
2018-12-01T18:46:41.635Z,86.07
2018-12-01T18:49:07.926Z,86.11
2018-12-01T18:51:34.260Z,86.31
2018-12-01T18:54:00.711Z,86.43
2018-12-01T18:56:27.099Z,86.58
2018-12-01T18:58:53.440Z,85.98
2018-12-01T19:01:19.740Z,85.85
2018-12-01T19:03:46.032Z,85.74
2018-12-01T19:06:12.335Z,85.81
2018-12-01T19:08:38.707Z,86.41
2018-12-01T19:11:05.308Z,86.75
2018-12-01T19:13:31.593Z,86.68
2018-12-01T19:15:57.908Z,86.98
2018-12-01T19:18:24.265Z,87.21
2018-12-01T19:20:50.553Z,87.43
2018-12-01T19:23:16.852Z,86.94
2018-12-01T19:25:43.161Z,86.37
2018-12-01T19:28:09.445Z,86.61
2018-12-01T19:30:35.737Z,87.06
2018-12-01T19:33:02.085Z,87.40
2018-12-01T19:35:28.329Z,87.73
2018-12-01T19:37:54.646Z,88.19
2018-12-01T19:40:20.959Z,88.10
2018-12-01T19:42:47.248Z,88.22
2018-12-01T19:45:13.548Z,88.20
2018-12-01T19:47:39.893Z,87.98
2018-12-01T19:50:06.206Z,87.87
2018-12-01T19:52:32.560Z,87.64
2018-12-01T19:54:58.881Z,87.61
2018-12-01T19:57:25.157Z,87.28
2018-12-01T19:59:51.461Z,87.21
2018-12-01T20:02:17.757Z,86.90
2018-12-01T20:04:44.068Z,87.06
2018-12-01T20:07:10.349Z,87.28
2018-12-01T20:09:36.692Z,87.13
2018-12-01T20:12:02.994Z,86.71
2018-12-01T20:14:29.481Z,86.48
2018-12-01T20:16:55.786Z,86.44
2018-12-01T20:19:22.252Z,86.21
2018-12-01T20:21:48.551Z,85.83
2018-12-01T20:24:14.842Z,85.96
2018-12-01T20:26:41.192Z,86.01
2018-12-01T20:29:07.499Z,85.82
2018-12-01T20:31:33.790Z,85.85
2018-12-01T20:34:00.099Z,86.02
2018-12-01T20:36:26.397Z,86.21
2018-12-01T20:38:52.695Z,85.73
2018-12-01T20:41:19.010Z,86.06
2018-12-01T20:43:45.454Z,86.04
2018-12-01T20:46:11.804Z,86.07
2018-12-01T20:48:38.149Z,86.23
2018-12-01T20:51:04.446Z,86.34
2018-12-01T20:53:30.888Z,86.35
2018-12-01T20:55:57.178Z,86.67
2018-12-01T20:58:24.725Z,86.76
2018-12-01T21:00:49.847Z,86.79
2018-12-01T21:03:16.144Z,86.60
2018-12-01T21:05:42.457Z,86.55
2018-12-01T21:08:08.741Z,86.81
2018-12-01T21:10:35.052Z,87.04
2018-12-01T21:13:01.430Z,87.30
2018-12-01T21:15:29.730Z,87.60
2018-12-01T21:17:54.131Z,87.93
2018-12-01T21:20:20.472Z,88.12
2018-12-01T21:22:46.851Z,88.23
2018-12-01T21:25:13.199Z,88.45
2018-12-01T21:27:39.545Z,88.62
2018-12-01T21:30:05.885Z,88.97
2018-12-01T21:32:32.179Z,89.19
2018-12-01T21:34:58.476Z,89.35
2018-12-01T21:37:24.771Z,89.62
2018-12-01T21:39:51.078Z,89.96
2018-12-01T21:42:20.349Z,90.20
2018-12-01T21:44:46.697Z,90.30
2018-12-01T21:47:16.052Z,90.40
2018-12-01T21:49:43.158Z,90.82
2018-12-01T21:52:09.387Z,93.15
2018-12-01T21:54:35.719Z,91.34
2018-12-01T21:57:02.154Z,91.06
2018-12-01T21:59:28.421Z,91.22
2018-12-01T22:01:57.079Z,91.38
2018-12-01T22:04:23.417Z,90.98
2018-12-01T22:06:49.720Z,91.28
2018-12-01T22:09:16.016Z,91.46
2018-12-01T22:11:42.318Z,91.47
2018-12-01T22:14:08.715Z,91.42
2018-12-01T22:16:35.139Z,91.66
2018-12-01T22:19:01.472Z,91.81
2018-12-01T22:21:27.861Z,91.73
2018-12-01T22:23:54.120Z,91.76
2018-12-01T22:26:20.398Z,91.63
2018-12-01T22:28:46.717Z,91.40
2018-12-01T22:31:12.995Z,90.99
2018-12-01T22:33:39.313Z,91.72
2018-12-01T22:36:05.609Z,90.19
2018-12-01T22:38:32.048Z,89.59
2018-12-01T22:41:02.571Z,89.59
2018-12-01T22:43:28.912Z,90.05
2018-12-01T22:45:55.222Z,90.40
2018-12-01T22:48:27.220Z,90.88
2018-12-01T22:50:53.567Z,91.10
2018-12-01T22:53:19.882Z,91.10
2018-12-01T22:55:46.167Z,90.99
2018-12-01T22:58:12.694Z,93.08
2018-12-01T23:00:39.036Z,91.88
2018-12-01T23:03:05.432Z,90.53
2018-12-01T23:05:31.721Z,90.82
2018-12-01T23:07:58.047Z,90.47
2018-12-01T23:10:24.367Z,90.30
2018-12-01T23:12:50.670Z,90.35
2018-12-01T23:15:17.002Z,90.62
2018-12-01T23:17:43.304Z,90.82
2018-12-01T23:20:09.597Z,91.02
2018-12-01T23:22:35.910Z,91.30
2018-12-01T23:25:02.224Z,91.37
2018-12-01T23:27:28.517Z,91.36
2018-12-01T23:29:54.822Z,91.34
2018-12-01T23:32:21.230Z,91.35
2018-12-01T23:34:49.884Z,91.25
2018-12-01T23:37:16.355Z,91.23
2018-12-01T23:39:42.679Z,91.15
2018-12-01T23:42:09.013Z,90.91
2018-12-01T23:44:35.391Z,90.81
2018-12-01T23:47:19.945Z,90.96
2018-12-01T23:49:46.276Z,90.93
2018-12-01T23:52:12.688Z,90.83
2018-12-01T23:54:38.978Z,90.77
2018-12-01T23:57:05.276Z,90.58
2018-12-01T23:59:31.560Z,90.27
